Leo, Wyoming
Current Conditions -  °F | °C
As of 8:15 AM on Thursday 23 Oct 2014 (Local Time) from KEHY Reporting Station
Thunderstorm Thunderstorm  
Wind Chill: 39°   Ceiling: Unl
Heat Index: 46°   Visibility: 10mi
Dew Point: 27°   Wind: 17mph
Humidity: 46%   Direction: 240°WSW
Pressure: 30.18"   Gusts: 26mph
Location:  42.0236°N, 106.54°W
Report Text: KEHY 231415Z AUTO 24015G23KT 10SM TS CLR 08/M03 A3018 RMK AO2
Loading
Personal Weather Stations






























Interactive Weather Map
Tropical Storm Tracking
New forecast layout! Learn more

10-Day Weather Forecast

Advertisements
Track Severe Weather on mobile